createdAt,value
2019-01-21T00:00:27.700Z,7.47
2019-01-21T00:02:54.806Z,7.67
2019-01-21T00:05:21.918Z,8.00
2019-01-21T00:07:48.997Z,7.87
2019-01-21T00:10:16.082Z,7.70
2019-01-21T00:12:43.152Z,8.00
2019-01-21T00:15:10.267Z,7.83
2019-01-21T00:17:37.375Z,8.27
2019-01-21T00:20:04.509Z,8.23
2019-01-21T00:22:31.589Z,7.27
2019-01-21T00:24:58.680Z,8.33
2019-01-21T00:27:25.801Z,7.53
2019-01-21T00:29:52.896Z,8.00
2019-01-21T00:32:19.985Z,8.00
2019-01-21T00:34:47.080Z,8.80
2019-01-21T00:37:14.157Z,7.40
2019-01-21T00:39:41.271Z,7.57
2019-01-21T00:42:08.361Z,8.43
2019-01-21T00:44:35.452Z,8.20
2019-01-21T00:47:02.541Z,7.93
2019-01-21T00:49:29.608Z,8.20
2019-01-21T00:51:56.746Z,7.90
2019-01-21T00:54:23.822Z,8.13
2019-01-21T00:56:50.918Z,8.00
2019-01-21T00:59:17.996Z,9.00
2019-01-21T01:01:45.088Z,8.37
2019-01-21T01:04:12.152Z,8.07
2019-01-21T01:06:39.232Z,7.77
2019-01-21T01:09:06.460Z,8.83
2019-01-21T01:11:33.549Z,9.03
2019-01-21T01:14:00.613Z,8.50
2019-01-21T01:16:27.701Z,9.10
2019-01-21T01:18:54.787Z,8.97
2019-01-21T01:21:21.893Z,9.33
2019-01-21T01:23:48.992Z,8.23
2019-01-21T01:26:16.074Z,8.70
2019-01-21T01:28:43.149Z,8.60
2019-01-21T01:31:10.245Z,8.57
2019-01-21T01:33:37.330Z,8.37
2019-01-21T01:36:04.404Z,8.40
2019-01-21T01:38:31.476Z,9.43
2019-01-21T01:40:58.576Z,8.60
2019-01-21T01:43:25.678Z,8.53
2019-01-21T01:45:52.748Z,9.30
2019-01-21T01:48:19.845Z,9.23
2019-01-21T01:50:46.958Z,9.33
2019-01-21T01:53:14.052Z,8.63
2019-01-21T01:55:41.129Z,8.87
2019-01-21T01:58:08.220Z,9.20
2019-01-21T02:00:35.476Z,8.77
2019-01-21T02:03:02.581Z,9.50
2019-01-21T02:05:29.672Z,8.83
2019-01-21T02:07:56.765Z,8.63
2019-01-21T02:10:23.852Z,8.90
2019-01-21T02:12:50.928Z,8.40
2019-01-21T02:15:18.028Z,9.17
2019-01-21T02:17:51.894Z,8.17
2019-01-21T02:20:12.649Z,8.50
2019-01-21T02:22:42.240Z,8.17
2019-01-21T02:25:09.469Z,8.00
2019-01-21T02:27:52.500Z,8.47
2019-01-21T02:30:34.752Z,9.03
2019-01-21T02:35:13.226Z,8.37
2019-01-21T02:37:49.653Z,9.47
2019-01-21T02:40:31.599Z,8.03
2019-01-21T02:43:09.066Z,9.10
2019-01-21T02:48:01.633Z,9.00
2019-01-21T02:50:43.710Z,8.77
2019-01-21T02:56:22.692Z,8.93
2019-01-21T02:59:00.141Z,8.90
2019-01-21T03:01:37.231Z,8.83
2019-01-21T03:06:17.725Z,9.50
2019-01-21T03:09:04.327Z,8.63
2019-01-21T03:13:45.883Z,9.63
2019-01-21T03:18:29.181Z,9.37
2019-01-21T03:23:13.463Z,9.27
2019-01-21T03:25:50.846Z,8.73
2019-01-21T03:28:35.848Z,9.50
2019-01-21T03:31:18.146Z,8.63
2019-01-21T03:34:03.873Z,9.43
2019-01-21T03:36:47.201Z,9.33
2019-01-21T03:39:26.682Z,9.47
2019-01-21T03:42:20.412Z,10.13
2019-01-21T03:47:00.220Z,10.27
2019-01-21T03:49:35.167Z,9.13
2019-01-21T03:52:15.260Z,9.77
2019-01-21T03:54:47.972Z,10.03
2019-01-21T03:57:26.526Z,10.40
2019-01-21T04:00:04.261Z,9.60
2019-01-21T04:02:48.192Z,10.37
2019-01-21T04:05:26.200Z,10.60
2019-01-21T04:08:04.412Z,10.80
2019-01-21T04:10:47.548Z,9.93
2019-01-21T04:13:32.025Z,10.20
2019-01-21T04:18:24.611Z,10.40
2019-01-21T04:21:00.229Z,9.67
2019-01-21T04:23:42.758Z,9.87
2019-01-21T04:26:19.081Z,10.40
2019-01-21T04:29:03.993Z,10.70
2019-01-21T04:32:47.522Z,10.50
2019-01-21T04:37:26.100Z,9.73
2019-01-21T04:40:05.605Z,9.73
2019-01-21T04:42:50.123Z,10.00
2019-01-21T04:45:24.834Z,9.80
2019-01-21T04:48:18.308Z,10.70
2019-01-21T04:50:55.639Z,11.03
2019-01-21T04:53:32.941Z,10.83
2019-01-21T04:56:19.023Z,10.57
2019-01-21T04:59:00.219Z,10.30
2019-01-21T05:02:15.743Z,11.30
2019-01-21T05:04:57.729Z,10.43
2019-01-21T05:07:38.934Z,10.83
2019-01-21T05:10:14.964Z,10.20
2019-01-21T05:13:54.969Z,11.03
2019-01-21T05:17:41.691Z,10.53
2019-01-21T05:20:18.784Z,10.60
2019-01-21T05:25:02.441Z,11.27
2019-01-21T05:27:38.885Z,11.53
2019-01-21T05:30:15.805Z,11.10
2019-01-21T05:32:53.789Z,11.20
2019-01-21T05:35:35.750Z,11.03
2019-01-21T05:38:14.447Z,11.07
2019-01-21T05:40:56.314Z,10.67
2019-01-21T05:43:37.581Z,11.87
2019-01-21T05:50:21.284Z,10.67
2019-01-21T05:53:03.304Z,11.83
2019-01-21T05:57:47.849Z,11.83
2019-01-21T06:00:26.242Z,11.43
2019-01-21T06:03:04.780Z,11.33
2019-01-21T06:05:47.679Z,11.50
2019-01-21T06:09:04.215Z,11.70
2019-01-21T06:11:45.129Z,11.50
2019-01-21T06:14:31.277Z,11.43
2019-01-21T06:17:13.751Z,11.47
2019-01-21T06:19:55.301Z,11.20
2019-01-21T06:22:36.626Z,11.67
2019-01-21T06:25:19.965Z,12.23
2019-01-21T06:28:02.024Z,11.07
2019-01-21T06:30:45.701Z,12.43
2019-01-21T06:33:23.130Z,12.10
2019-01-21T06:35:59.773Z,11.57
2019-01-21T06:38:40.777Z,12.53
2019-01-21T06:41:27.759Z,12.40
2019-01-21T06:44:04.372Z,12.17
2019-01-21T06:46:55.631Z,12.13
2019-01-21T06:49:35.945Z,12.10
2019-01-21T06:54:19.080Z,12.80
2019-01-21T06:56:58.370Z,11.53
2019-01-21T07:01:40.389Z,11.73
2019-01-21T07:04:23.633Z,12.37
2019-01-21T07:07:01.145Z,12.43
2019-01-21T07:09:46.524Z,12.47
2019-01-21T07:12:22.009Z,12.37
2019-01-21T07:15:04.048Z,12.07
2019-01-21T07:18:10.378Z,12.33
2019-01-21T07:21:04.397Z,13.20
2019-01-21T07:23:42.116Z,12.67
2019-01-21T07:26:30.594Z,12.43
2019-01-21T07:29:16.588Z,12.83
2019-01-21T07:31:51.961Z,12.47
2019-01-21T07:35:04.952Z,12.07
2019-01-21T07:37:43.397Z,12.37
2019-01-21T07:40:22.072Z,13.07
2019-01-21T07:43:00.326Z,12.97
2019-01-21T07:45:32.781Z,12.47
2019-01-21T07:48:11.575Z,12.60
2019-01-21T07:50:58.659Z,12.87
2019-01-21T07:53:40.337Z,12.93
2019-01-21T07:56:18.766Z,13.73
2019-01-21T07:58:56.172Z,13.60
2019-01-21T08:01:32.445Z,13.13
2019-01-21T08:04:16.364Z,13.63
2019-01-21T08:06:59.648Z,13.07
2019-01-21T08:09:36.188Z,12.73
2019-01-21T08:14:15.767Z,13.03
2019-01-21T08:17:25.529Z,12.20
2019-01-21T08:20:05.169Z,12.70
2019-01-21T08:23:20.732Z,13.67
2019-01-21T08:25:59.497Z,12.77
2019-01-21T08:30:39.912Z,13.03
2019-01-21T08:33:20.243Z,13.03
2019-01-21T08:36:00.989Z,13.03
2019-01-21T08:38:40.973Z,14.13
2019-01-21T08:41:21.195Z,13.53
2019-01-21T08:45:59.529Z,12.63
2019-01-21T08:48:43.857Z,13.47
2019-01-21T08:52:33.037Z,13.53
2019-01-21T08:55:11.360Z,13.53
2019-01-21T08:57:53.605Z,12.93
2019-01-21T09:01:01.980Z,12.90
2019-01-21T09:03:51.170Z,12.17
2019-01-21T09:06:35.244Z,13.70
2019-01-21T09:09:24.435Z,13.40
2019-01-21T09:12:06.669Z,13.20
2019-01-21T09:16:00.785Z,13.10
2019-01-21T09:18:46.027Z,13.03
2019-01-21T09:23:27.768Z,12.83
2019-01-21T09:26:07.286Z,12.47
2019-01-21T09:28:52.451Z,12.00
2019-01-21T09:31:27.297Z,12.73
2019-01-21T09:34:05.647Z,12.63
2019-01-21T09:36:42.926Z,12.63
2019-01-21T09:39:22.194Z,13.30
2019-01-21T09:42:04.120Z,13.67
2019-01-21T09:44:46.047Z,13.83
2019-01-21T09:47:12.312Z,12.50
2019-01-21T09:49:43.732Z,13.30
2019-01-21T09:52:07.527Z,14.00
2019-01-21T09:54:36.902Z,13.33
2019-01-21T09:57:05.476Z,13.10
2019-01-21T09:59:32.969Z,14.07
2019-01-21T10:02:01.919Z,13.37
2019-01-21T10:04:33.949Z,13.33
2019-01-21T10:07:10.496Z,13.17
2019-01-21T10:09:55.167Z,12.80
2019-01-21T10:14:30.133Z,13.80
2019-01-21T10:17:09.472Z,12.63
2019-01-21T10:19:50.434Z,13.67
2019-01-21T10:22:27.828Z,13.00
2019-01-21T10:25:07.153Z,13.80
2019-01-21T10:27:49.542Z,13.83
2019-01-21T10:32:32.170Z,13.03
2019-01-21T10:35:13.114Z,13.93
2019-01-21T10:39:52.705Z,12.80
2019-01-21T10:42:35.621Z,13.40
2019-01-21T10:45:17.092Z,13.83
2019-01-21T10:47:53.341Z,14.57
2019-01-21T10:50:30.782Z,13.53
2019-01-21T10:53:14.730Z,13.97
2019-01-21T10:55:55.190Z,14.43
2019-01-21T10:58:34.641Z,14.03
2019-01-21T11:01:10.984Z,14.47
2019-01-21T11:03:52.878Z,13.27
2019-01-21T11:06:35.000Z,13.73
2019-01-21T11:09:17.083Z,13.73
2019-01-21T11:12:05.484Z,14.03
2019-01-21T11:14:37.334Z,15.03
2019-01-21T11:17:18.548Z,14.53
2019-01-21T11:20:11.633Z,14.67
2019-01-21T11:22:47.852Z,14.27
2019-01-21T11:25:42.041Z,14.90
2019-01-21T11:28:21.033Z,14.33
2019-01-21T11:31:10.693Z,15.03
2019-01-21T11:35:59.378Z,14.87
2019-01-21T11:38:36.749Z,14.70
2019-01-21T11:41:14.580Z,14.33
2019-01-21T11:44:01.814Z,14.87
2019-01-21T11:48:43.255Z,14.40
2019-01-21T11:51:30.341Z,13.70
2019-01-21T11:54:06.384Z,15.63
2019-01-21T11:56:56.688Z,15.27
2019-01-21T11:59:33.556Z,14.73
2019-01-21T12:02:15.149Z,15.60
2019-01-21T12:04:49.870Z,15.03
2019-01-21T12:08:39.841Z,15.27
2019-01-21T12:11:17.500Z,14.97
2019-01-21T12:14:25.547Z,14.70
2019-01-21T12:17:06.089Z,15.07
2019-01-21T12:19:48.324Z,14.73
2019-01-21T12:22:26.534Z,14.07
2019-01-21T12:25:07.053Z,15.27
2019-01-21T12:27:44.409Z,14.60
2019-01-21T12:31:30.804Z,14.27
2019-01-21T12:34:11.994Z,14.77
2019-01-21T12:36:55.324Z,14.93
2019-01-21T12:41:33.968Z,15.53
2019-01-21T12:44:30.905Z,15.10
2019-01-21T12:47:05.132Z,14.50
2019-01-21T12:49:50.477Z,14.67
2019-01-21T12:52:23.324Z,14.63
2019-01-21T12:57:04.352Z,14.97
2019-01-21T12:59:42.212Z,14.77
2019-01-21T13:02:19.308Z,14.43
2019-01-21T13:04:54.504Z,18.30
2019-01-21T13:07:34.525Z,16.50
2019-01-21T13:10:13.153Z,16.40
2019-01-21T13:12:55.589Z,16.10
2019-01-21T13:15:41.660Z,15.30
2019-01-21T13:18:20.413Z,16.20
2019-01-21T13:21:00.616Z,17.53
2019-01-21T13:23:35.517Z,17.30
2019-01-21T13:28:21.726Z,16.67
2019-01-21T13:30:59.377Z,16.27
2019-01-21T13:33:35.725Z,16.63
2019-01-21T13:36:12.210Z,18.10
2019-01-21T13:38:51.432Z,16.93
2019-01-21T13:41:26.905Z,16.27
2019-01-21T13:44:09.762Z,14.97
2019-01-21T13:46:48.241Z,17.50
2019-01-21T13:49:23.496Z,16.70
2019-01-21T13:52:01.800Z,17.03
2019-01-21T13:55:10.235Z,14.90
2019-01-21T14:01:51.763Z,15.03
2019-01-21T14:04:31.938Z,14.60
2019-01-21T14:08:12.247Z,15.47
2019-01-21T14:11:11.013Z,14.23
2019-01-21T14:13:44.032Z,14.03
2019-01-21T14:16:23.209Z,14.37
2019-01-21T14:18:58.104Z,15.27
2019-01-21T14:21:41.311Z,14.13
2019-01-21T14:24:17.792Z,14.17
2019-01-21T14:26:53.394Z,15.60
2019-01-21T14:29:29.849Z,14.40
2019-01-21T14:32:15.248Z,14.87
2019-01-21T14:34:53.985Z,13.23
2019-01-21T14:37:48.277Z,14.67
2019-01-21T14:40:22.757Z,13.80
2019-01-21T14:43:08.468Z,13.73
2019-01-21T14:47:43.160Z,13.70
2019-01-21T14:50:23.396Z,13.60
2019-01-21T14:53:13.831Z,14.20
2019-01-21T14:55:49.468Z,13.73
2019-01-21T14:58:27.066Z,13.60
2019-01-21T15:01:17.557Z,13.27
2019-01-21T15:03:54.588Z,13.93
2019-01-21T15:06:36.224Z,13.43
2019-01-21T15:10:19.548Z,13.87
2019-01-21T15:12:59.359Z,13.90
2019-01-21T15:15:35.928Z,12.23
2019-01-21T15:18:10.864Z,13.73
2019-01-21T15:20:48.694Z,13.40
2019-01-21T15:23:27.192Z,12.23
2019-01-21T15:26:10.964Z,13.47
2019-01-21T15:30:53.556Z,12.77
2019-01-21T15:33:34.992Z,12.97
2019-01-21T15:36:15.384Z,12.87
2019-01-21T15:39:14.400Z,12.90
2019-01-21T15:42:59.054Z,13.97
2019-01-21T15:45:41.494Z,12.23
2019-01-21T15:48:17.406Z,13.80
2019-01-21T15:51:08.494Z,12.87
2019-01-21T15:53:47.752Z,13.93
2019-01-21T15:56:24.132Z,12.87
2019-01-21T15:59:08.804Z,13.07
2019-01-21T16:01:45.650Z,12.83
2019-01-21T16:04:25.225Z,13.30
2019-01-21T16:07:18.177Z,13.70
2019-01-21T16:10:54.128Z,14.10
2019-01-21T16:14:27.064Z,13.07
2019-01-21T16:17:09.425Z,13.27
2019-01-21T16:19:40.677Z,13.07
2019-01-21T16:24:30.016Z,13.10
2019-01-21T16:27:04.160Z,12.97
2019-01-21T16:29:43.825Z,12.47
2019-01-21T16:32:16.140Z,13.40
2019-01-21T16:34:58.670Z,12.43
2019-01-21T16:37:42.412Z,13.60
2019-01-21T16:41:20.637Z,13.77
2019-01-21T16:43:47.716Z,13.47
2019-01-21T16:46:14.818Z,12.97
2019-01-21T16:48:41.911Z,13.60
2019-01-21T16:51:08.992Z,14.00
2019-01-21T16:53:36.076Z,13.00
2019-01-21T16:56:03.196Z,14.23
2019-01-21T16:58:30.253Z,12.97
2019-01-21T17:00:57.344Z,13.93
2019-01-21T17:03:24.431Z,13.47
2019-01-21T17:05:51.501Z,14.30
2019-01-21T17:08:18.570Z,13.07
2019-01-21T17:10:45.681Z,13.67
2019-01-21T17:13:12.783Z,13.63
2019-01-21T17:15:39.863Z,14.33
2019-01-21T17:18:06.953Z,15.17
2019-01-21T17:20:34.083Z,14.30
2019-01-21T17:23:01.172Z,13.97
2019-01-21T17:25:28.252Z,14.33
2019-01-21T17:27:55.337Z,14.77
2019-01-21T17:30:22.412Z,14.03
2019-01-21T17:32:49.491Z,13.97
2019-01-21T17:35:16.604Z,14.70
2019-01-21T17:37:43.763Z,14.90
2019-01-21T17:40:12.405Z,14.07
2019-01-21T17:42:39.587Z,13.87
2019-01-21T17:45:10.077Z,13.37
2019-01-21T17:47:37.213Z,14.77
2019-01-21T17:50:05.088Z,14.57
2019-01-21T17:52:32.216Z,14.67
2019-01-21T17:54:59.317Z,14.83
2019-01-21T17:57:26.396Z,14.50
2019-01-21T17:59:53.514Z,13.83
2019-01-21T18:02:20.609Z,14.30
2019-01-21T18:04:47.717Z,15.23
2019-01-21T18:07:14.848Z,14.43
2019-01-21T18:09:41.990Z,15.30
2019-01-21T18:12:09.085Z,15.07
2019-01-21T18:14:36.213Z,14.53
2019-01-21T18:17:03.310Z,14.03
2019-01-21T18:19:30.458Z,13.70
2019-01-21T18:21:57.580Z,14.67
2019-01-21T18:24:24.736Z,14.97
2019-01-21T18:26:51.836Z,14.97
2019-01-21T18:29:18.980Z,15.40
2019-01-21T18:31:46.628Z,15.47
2019-01-21T18:34:13.760Z,14.93
2019-01-21T18:36:40.828Z,15.53
2019-01-21T18:39:10.684Z,15.67
2019-01-21T18:41:37.789Z,14.30
2019-01-21T18:44:04.861Z,16.43
2019-01-21T18:46:31.992Z,15.33
2019-01-21T18:48:59.076Z,16.17
2019-01-21T18:51:26.149Z,15.23
2019-01-21T18:53:53.240Z,14.93
2019-01-21T18:56:20.325Z,15.33
2019-01-21T18:58:47.425Z,16.17
2019-01-21T19:01:14.532Z,16.10
2019-01-21T19:03:41.638Z,15.67
2019-01-21T19:06:08.754Z,15.73
2019-01-21T19:08:35.864Z,16.90
2019-01-21T19:11:02.963Z,15.50
2019-01-21T19:13:30.048Z,15.63
2019-01-21T19:15:57.168Z,17.17
2019-01-21T19:18:24.272Z,16.17
2019-01-21T19:20:51.344Z,16.63
2019-01-21T19:23:18.441Z,16.70
2019-01-21T19:25:45.564Z,17.47
2019-01-21T19:28:12.660Z,15.37
2019-01-21T19:30:39.785Z,15.80
2019-01-21T19:33:06.929Z,16.93
2019-01-21T19:35:35.768Z,16.40
2019-01-21T19:38:02.882Z,16.70
2019-01-21T19:40:30.035Z,16.23
2019-01-21T19:42:57.137Z,15.90
2019-01-21T19:45:24.284Z,16.50
2019-01-21T19:47:51.384Z,16.97
2019-01-21T19:50:19.401Z,16.87
2019-01-21T19:52:46.563Z,16.57
2019-01-21T19:55:17.164Z,17.30
2019-01-21T19:57:44.263Z,16.17
2019-01-21T20:00:14.373Z,16.63
2019-01-21T20:02:41.633Z,16.47
2019-01-21T20:05:09.076Z,16.77
2019-01-21T20:07:36.165Z,17.60
2019-01-21T20:10:04.960Z,18.47
2019-01-21T20:12:32.048Z,16.67
2019-01-21T20:14:59.125Z,17.20
2019-01-21T20:17:26.196Z,17.53
2019-01-21T20:19:53.271Z,16.80
2019-01-21T20:22:20.361Z,18.57
2019-01-21T20:24:47.493Z,17.03
2019-01-21T20:27:14.598Z,17.97
2019-01-21T20:29:41.740Z,18.43
2019-01-21T20:32:08.828Z,17.00
2019-01-21T20:34:35.912Z,16.37
2019-01-21T20:37:03.044Z,17.30
2019-01-21T20:39:30.112Z,17.17
2019-01-21T20:41:57.246Z,17.60
2019-01-21T20:44:24.340Z,17.73
2019-01-21T20:46:51.429Z,17.03
2019-01-21T20:49:18.507Z,18.03
2019-01-21T20:51:45.590Z,17.13
2019-01-21T20:54:12.673Z,17.87
2019-01-21T20:56:39.780Z,17.57
2019-01-21T20:59:06.868Z,18.03
2019-01-21T21:01:33.966Z,17.33
2019-01-21T21:04:01.061Z,18.23
2019-01-21T21:06:28.120Z,17.33
2019-01-21T21:08:55.212Z,17.37
2019-01-21T21:11:22.292Z,17.93
2019-01-21T21:13:49.389Z,18.47
2019-01-21T21:16:16.473Z,19.37
2019-01-21T21:18:43.570Z,17.80
2019-01-21T21:21:10.649Z,18.13
2019-01-21T21:23:37.735Z,18.03
2019-01-21T21:26:04.835Z,17.63
2019-01-21T21:28:31.957Z,18.30
2019-01-21T21:30:59.061Z,17.27
2019-01-21T21:33:26.145Z,18.33
2019-01-21T21:35:53.255Z,18.50
2019-01-21T21:38:20.370Z,18.63
2019-01-21T21:40:47.455Z,18.00
2019-01-21T21:43:14.586Z,19.07
2019-01-21T21:45:41.682Z,17.83
2019-01-21T21:48:08.802Z,20.10
2019-01-21T21:50:35.940Z,17.87
2019-01-21T21:53:03.060Z,19.17
2019-01-21T21:55:30.229Z,19.00
2019-01-21T21:57:57.345Z,18.83
2019-01-21T22:00:25.181Z,18.90
2019-01-21T22:02:52.316Z,18.40
2019-01-21T22:05:19.439Z,18.80
2019-01-21T22:07:46.568Z,18.37
2019-01-21T22:10:19.594Z,18.87
2019-01-21T22:12:42.263Z,19.33
2019-01-21T22:15:11.978Z,19.90
2019-01-21T22:17:39.056Z,19.37
2019-01-21T22:20:08.464Z,18.27
2019-01-21T22:22:35.586Z,18.90
2019-01-21T22:25:02.684Z,19.80
2019-01-21T22:27:29.829Z,18.20
2019-01-21T22:29:56.914Z,19.00
2019-01-21T22:32:24.017Z,19.10
2019-01-21T22:34:51.119Z,18.60
2019-01-21T22:37:18.240Z,18.53
2019-01-21T22:39:45.336Z,18.03
2019-01-21T22:42:12.446Z,19.27
2019-01-21T22:44:39.571Z,19.13
2019-01-21T22:47:06.657Z,19.77
2019-01-21T22:49:33.761Z,18.93
2019-01-21T22:52:00.913Z,19.90
2019-01-21T22:54:28.037Z,18.60
2019-01-21T22:56:55.178Z,18.97
2019-01-21T22:59:22.275Z,17.93
2019-01-21T23:01:49.397Z,19.77
2019-01-21T23:04:16.456Z,17.60
2019-01-21T23:06:43.537Z,19.13
2019-01-21T23:09:10.662Z,18.83
2019-01-21T23:11:37.761Z,19.23
2019-01-21T23:14:04.896Z,19.60
2019-01-21T23:16:32.001Z,18.33
2019-01-21T23:18:59.116Z,18.60
2019-01-21T23:21:26.201Z,19.30
2019-01-21T23:23:53.300Z,19.40
2019-01-21T23:26:20.404Z,18.90
2019-01-21T23:28:47.497Z,19.33
2019-01-21T23:31:14.582Z,17.87
2019-01-21T23:33:41.680Z,19.30
2019-01-21T23:36:08.784Z,20.17
2019-01-21T23:38:35.878Z,19.57
2019-01-21T23:41:03.052Z,20.20
2019-01-21T23:43:30.160Z,20.00
2019-01-21T23:45:57.264Z,19.77
2019-01-21T23:48:24.396Z,21.03
2019-01-21T23:50:51.484Z,19.80
2019-01-21T23:53:18.630Z,20.53
2019-01-21T23:55:45.709Z,20.37
2019-01-21T23:58:12.800Z,20.00
